sensor_id;sensor_type;location;lat;lon;timestamp;temperature;humidity
14095;DHT22;18096;48.142;16.290;2022-11-30T00:00:21;4.20;99.90
14095;DHT22;18096;48.142;16.290;2022-11-30T00:02:47;4.10;99.90
14095;DHT22;18096;48.142;16.290;2022-11-30T00:05:19;4.10;99.90
14095;DHT22;18096;48.142;16.290;2022-11-30T00:07:45;4.10;99.90
14095;DHT22;18096;48.142;16.290;2022-11-30T00:10:11;4.10;99.90
14095;DHT22;18096;48.142;16.290;2022-11-30T00:12:37;4.10;99.90
14095;DHT22;18096;48.142;16.290;2022-11-30T00:15:08;4.10;99.90
14095;DHT22;18096;48.142;16.290;2022-11-30T00:17:33;4.10;99.90
14095;DHT22;18096;48.142;16.290;2022-11-30T00:19:59;4.10;99.90
14095;DHT22;18096;48.142;16.290;2022-11-30T00:22:25;4.10;99.90
14095;DHT22;18096;48.142;16.290;2022-11-30T00:24:50;4.10;99.90
14095;DHT22;18096;48.142;16.290;2022-11-30T00:27:16;4.10;99.90
14095;DHT22;18096;48.142;16.290;2022-11-30T00:29:42;4.10;99.90
14095;DHT22;18096;48.142;16.290;2022-11-30T00:32:07;4.00;99.90
14095;DHT22;18096;48.142;16.290;2022-11-30T00:34:33;3.90;99.90
14095;DHT22;18096;48.142;16.290;2022-11-30T00:36:58;3.90;99.90
14095;DHT22;18096;48.142;16.290;2022-11-30T00:39:24;3.90;99.90
14095;DHT22;18096;48.142;16.290;2022-11-30T00:41:50;3.90;99.90
14095;DHT22;18096;48.142;16.290;2022-11-30T00:44:15;3.90;99.90
14095;DHT22;18096;48.142;16.290;2022-11-30T00:46:41;3.90;99.90
14095;DHT22;18096;48.142;16.290;2022-11-30T00:49:06;3.90;99.90
14095;DHT22;18096;48.142;16.290;2022-11-30T00:51:32;3.90;99.90
14095;DHT22;18096;48.142;16.290;2022-11-30T00:53:58;3.80;99.90
14095;DHT22;18096;48.142;16.290;2022-11-30T00:56:23;3.80;99.90
14095;DHT22;18096;48.142;16.290;2022-11-30T00:58:49;3.80;99.90
14095;DHT22;18096;48.142;16.290;2022-11-30T01:01:14;3.80;99.90
14095;DHT22;18096;48.142;16.290;2022-11-30T01:03:40;3.80;99.90
14095;DHT22;18096;48.142;16.290;2022-11-30T01:06:08;3.80;99.90
14095;DHT22;18096;48.142;16.290;2022-11-30T01:08:34;3.80;99.90
14095;DHT22;18096;48.142;16.290;2022-11-30T01:11:08;3.90;99.90
14095;DHT22;18096;48.142;16.290;2022-11-30T01:13:35;3.90;99.90
14095;DHT22;18096;48.142;16.290;2022-11-30T01:16:07;3.90;99.90
14095;DHT22;18096;48.142;16.290;2022-11-30T01:18:35;3.80;99.90
14095;DHT22;18096;48.142;16.290;2022-11-30T01:21:05;3.80;99.90
14095;DHT22;18096;48.142;16.290;2022-11-30T01:23:31;3.80;99.90
14095;DHT22;18096;48.142;16.290;2022-11-30T01:25:57;3.80;99.90
14095;DHT22;18096;48.142;16.290;2022-11-30T01:28:23;3.80;99.90
14095;DHT22;18096;48.142;16.290;2022-11-30T01:31:02;3.70;99.90
14095;DHT22;18096;48.142;16.290;2022-11-30T01:33:28;3.80;99.90
14095;DHT22;18096;48.142;16.290;2022-11-30T01:36:06;3.70;99.90
14095;DHT22;18096;48.142;16.290;2022-11-30T01:38:35;3.70;99.90
14095;DHT22;18096;48.142;16.290;2022-11-30T01:41:02;3.70;99.90
14095;DHT22;18096;48.142;16.290;2022-11-30T01:43:41;3.70;99.90
14095;DHT22;18096;48.142;16.290;2022-11-30T01:46:29;3.70;99.90
14095;DHT22;18096;48.142;16.290;2022-11-30T01:52:08;3.70;99.90
14095;DHT22;18096;48.142;16.290;2022-11-30T01:54:48;3.70;99.90
14095;DHT22;18096;48.142;16.290;2022-11-30T01:57:26;3.80;99.90
14095;DHT22;18096;48.142;16.290;2022-11-30T01:59:57;3.80;99.90
14095;DHT22;18096;48.142;16.290;2022-11-30T02:02:38;3.70;99.90
14095;DHT22;18096;48.142;16.290;2022-11-30T02:05:07;3.70;99.90
14095;DHT22;18096;48.142;16.290;2022-11-30T02:07:34;3.70;99.90
14095;DHT22;18096;48.142;16.290;2022-11-30T02:09:59;3.70;99.90
14095;DHT22;18096;48.142;16.290;2022-11-30T02:15:28;3.70;99.90
14095;DHT22;18096;48.142;16.290;2022-11-30T02:18:07;3.70;99.90
14095;DHT22;18096;48.142;16.290;2022-11-30T02:20:58;3.70;99.90
14095;DHT22;18096;48.142;16.290;2022-11-30T02:23:54;3.80;99.90
14095;DHT22;18096;48.142;16.290;2022-11-30T02:29:03;3.80;99.90
14095;DHT22;18096;48.142;16.290;2022-11-30T02:31:41;3.80;99.90
14095;DHT22;18096;48.142;16.290;2022-11-30T02:34:09;3.80;99.90
14095;DHT22;18096;48.142;16.290;2022-11-30T02:36:37;3.80;99.90
14095;DHT22;18096;48.142;16.290;2022-11-30T02:39:03;3.90;99.90
14095;DHT22;18096;48.142;16.290;2022-11-30T02:41:37;3.80;99.90
14095;DHT22;18096;48.142;16.290;2022-11-30T02:44:03;3.80;99.90
14095;DHT22;18096;48.142;16.290;2022-11-30T02:46:43;3.80;99.90
14095;DHT22;18096;48.142;16.290;2022-11-30T02:51:53;3.70;99.90
14095;DHT22;18096;48.142;16.290;2022-11-30T02:54:19;3.70;99.90
14095;DHT22;18096;48.142;16.290;2022-11-30T02:56:45;3.70;99.90
14095;DHT22;18096;48.142;16.290;2022-11-30T02:59:10;3.70;99.90
14095;DHT22;18096;48.142;16.290;2022-11-30T03:01:37;3.70;99.90
14095;DHT22;18096;48.142;16.290;2022-11-30T03:04:03;3.70;99.90
14095;DHT22;18096;48.142;16.290;2022-11-30T03:06:29;3.70;99.90
14095;DHT22;18096;48.142;16.290;2022-11-30T03:08:55;3.80;99.90
14095;DHT22;18096;48.142;16.290;2022-11-30T03:11:20;3.70;99.90
14095;DHT22;18096;48.142;16.290;2022-11-30T03:13:46;3.70;99.90
14095;DHT22;18096;48.142;16.290;2022-11-30T03:16:12;3.70;99.90
14095;DHT22;18096;48.142;16.290;2022-11-30T03:18:38;3.60;99.90
14095;DHT22;18096;48.142;16.290;2022-11-30T03:21:09;3.60;99.90
14095;DHT22;18096;48.142;16.290;2022-11-30T03:23:35;3.70;99.90
14095;DHT22;18096;48.142;16.290;2022-11-30T03:26:01;3.70;99.90
14095;DHT22;18096;48.142;16.290;2022-11-30T03:28:28;3.60;99.90
14095;DHT22;18096;48.142;16.290;2022-11-30T03:30:53;3.70;99.90
14095;DHT22;18096;48.142;16.290;2022-11-30T03:33:19;3.60;99.90
14095;DHT22;18096;48.142;16.290;2022-11-30T03:35:46;3.60;99.90
14095;DHT22;18096;48.142;16.290;2022-11-30T03:38:11;3.70;99.90
14095;DHT22;18096;48.142;16.290;2022-11-30T03:40:37;3.80;99.90
14095;DHT22;18096;48.142;16.290;2022-11-30T03:43:03;3.70;99.90
14095;DHT22;18096;48.142;16.290;2022-11-30T03:45:29;3.60;99.90
14095;DHT22;18096;48.142;16.290;2022-11-30T03:47:55;3.70;99.90
14095;DHT22;18096;48.142;16.290;2022-11-30T03:50:21;3.60;99.90
14095;DHT22;18096;48.142;16.290;2022-11-30T03:52:47;3.60;99.90
14095;DHT22;18096;48.142;16.290;2022-11-30T03:55:12;3.60;99.90
14095;DHT22;18096;48.142;16.290;2022-11-30T03:57:38;3.60;99.90
14095;DHT22;18096;48.142;16.290;2022-11-30T04:00:05;3.60;99.90
14095;DHT22;18096;48.142;16.290;2022-11-30T04:02:31;3.60;99.90
14095;DHT22;18096;48.142;16.290;2022-11-30T04:04:57;3.70;99.90
14095;DHT22;18096;48.142;16.290;2022-11-30T04:07:22;3.70;99.90
14095;DHT22;18096;48.142;16.290;2022-11-30T04:09:48;3.60;99.90
14095;DHT22;18096;48.142;16.290;2022-11-30T04:12:14;3.60;99.90
14095;DHT22;18096;48.142;16.290;2022-11-30T04:14:39;3.60;99.90
14095;DHT22;18096;48.142;16.290;2022-11-30T04:17:05;3.60;99.90
14095;DHT22;18096;48.142;16.290;2022-11-30T04:19:31;3.60;99.90
14095;DHT22;18096;48.142;16.290;2022-11-30T04:21:56;3.60;99.90
14095;DHT22;18096;48.142;16.290;2022-11-30T04:24:22;3.60;99.90
14095;DHT22;18096;48.142;16.290;2022-11-30T04:26:48;3.60;99.90
14095;DHT22;18096;48.142;16.290;2022-11-30T04:29:13;3.60;99.90
14095;DHT22;18096;48.142;16.290;2022-11-30T04:31:39;3.60;99.90
14095;DHT22;18096;48.142;16.290;2022-11-30T04:34:05;3.60;99.90
14095;DHT22;18096;48.142;16.290;2022-11-30T04:36:30;3.60;99.90
14095;DHT22;18096;48.142;16.290;2022-11-30T04:38:56;3.70;99.90
14095;DHT22;18096;48.142;16.290;2022-11-30T04:41:21;3.60;99.90
14095;DHT22;18096;48.142;16.290;2022-11-30T04:43:47;3.70;99.90
14095;DHT22;18096;48.142;16.290;2022-11-30T04:46:13;3.60;99.90
14095;DHT22;18096;48.142;16.290;2022-11-30T04:48:39;3.70;99.90
14095;DHT22;18096;48.142;16.290;2022-11-30T04:51:06;3.60;99.90
14095;DHT22;18096;48.142;16.290;2022-11-30T04:53:33;3.60;99.90
14095;DHT22;18096;48.142;16.290;2022-11-30T04:56:04;3.60;99.90
14095;DHT22;18096;48.142;16.290;2022-11-30T04:58:30;3.60;99.90
14095;DHT22;18096;48.142;16.290;2022-11-30T05:00:55;3.60;99.90
14095;DHT22;18096;48.142;16.290;2022-11-30T05:03:21;3.60;99.90
14095;DHT22;18096;48.142;16.290;2022-11-30T05:05:47;3.70;99.90
14095;DHT22;18096;48.142;16.290;2022-11-30T05:08:12;3.60;99.90
14095;DHT22;18096;48.142;16.290;2022-11-30T05:10:38;3.70;99.90
14095;DHT22;18096;48.142;16.290;2022-11-30T05:13:03;3.60;99.90
14095;DHT22;18096;48.142;16.290;2022-11-30T05:15:30;3.60;99.90
14095;DHT22;18096;48.142;16.290;2022-11-30T05:17:59;3.60;99.90
14095;DHT22;18096;48.142;16.290;2022-11-30T05:20:26;3.70;99.90
14095;DHT22;18096;48.142;16.290;2022-11-30T05:22:52;3.70;99.90
14095;DHT22;18096;48.142;16.290;2022-11-30T05:25:17;3.70;99.90
14095;DHT22;18096;48.142;16.290;2022-11-30T05:27:43;3.70;99.90
14095;DHT22;18096;48.142;16.290;2022-11-30T05:30:09;3.60;99.90
14095;DHT22;18096;48.142;16.290;2022-11-30T05:32:35;3.70;99.90
14095;DHT22;18096;48.142;16.290;2022-11-30T05:35:00;3.60;99.90
14095;DHT22;18096;48.142;16.290;2022-11-30T05:37:26;3.60;99.90
14095;DHT22;18096;48.142;16.290;2022-11-30T05:39:52;3.60;99.90
14095;DHT22;18096;48.142;16.290;2022-11-30T05:42:17;3.60;99.90
14095;DHT22;18096;48.142;16.290;2022-11-30T05:44:43;3.70;99.90
14095;DHT22;18096;48.142;16.290;2022-11-30T05:47:09;3.70;99.90
14095;DHT22;18096;48.142;16.290;2022-11-30T05:49:35;3.70;99.90
14095;DHT22;18096;48.142;16.290;2022-11-30T05:52:00;3.80;99.90
14095;DHT22;18096;48.142;16.290;2022-11-30T05:54:26;3.80;99.90
14095;DHT22;18096;48.142;16.290;2022-11-30T05:56:52;3.80;99.90
14095;DHT22;18096;48.142;16.290;2022-11-30T05:59:17;3.80;99.90
14095;DHT22;18096;48.142;16.290;2022-11-30T06:01:43;3.70;99.90
14095;DHT22;18096;48.142;16.290;2022-11-30T06:04:08;3.70;99.90
14095;DHT22;18096;48.142;16.290;2022-11-30T06:06:34;3.70;99.90
14095;DHT22;18096;48.142;16.290;2022-11-30T06:09:00;3.70;99.90
14095;DHT22;18096;48.142;16.290;2022-11-30T06:11:25;3.70;99.90
14095;DHT22;18096;48.142;16.290;2022-11-30T06:13:51;3.70;99.90
14095;DHT22;18096;48.142;16.290;2022-11-30T06:16:17;3.60;99.90
14095;DHT22;18096;48.142;16.290;2022-11-30T06:18:42;3.60;99.90
14095;DHT22;18096;48.142;16.290;2022-11-30T06:21:09;3.60;99.90
14095;DHT22;18096;48.142;16.290;2022-11-30T06:23:35;3.70;99.90
14095;DHT22;18096;48.142;16.290;2022-11-30T06:26:06;3.70;99.90
14095;DHT22;18096;48.142;16.290;2022-11-30T06:28:32;3.80;99.90
14095;DHT22;18096;48.142;16.290;2022-11-30T06:31:02;3.80;99.90
14095;DHT22;18096;48.142;16.290;2022-11-30T06:33:28;3.80;99.90
14095;DHT22;18096;48.142;16.290;2022-11-30T06:35:54;3.70;99.90
14095;DHT22;18096;48.142;16.290;2022-11-30T06:38:21;3.80;99.90
14095;DHT22;18096;48.142;16.290;2022-11-30T06:40:48;3.70;99.90
14095;DHT22;18096;48.142;16.290;2022-11-30T06:43:14;3.80;99.90
14095;DHT22;18096;48.142;16.290;2022-11-30T06:45:42;3.70;99.90
14095;DHT22;18096;48.142;16.290;2022-11-30T06:48:09;3.70;99.90
14095;DHT22;18096;48.142;16.290;2022-11-30T06:50:34;3.80;99.90
14095;DHT22;18096;48.142;16.290;2022-11-30T06:53:00;3.80;99.90
14095;DHT22;18096;48.142;16.290;2022-11-30T06:55:25;3.90;99.90
14095;DHT22;18096;48.142;16.290;2022-11-30T06:57:51;3.90;99.90
14095;DHT22;18096;48.142;16.290;2022-11-30T07:00:17;3.90;99.90
14095;DHT22;18096;48.142;16.290;2022-11-30T07:02:43;3.90;99.90
14095;DHT22;18096;48.142;16.290;2022-11-30T07:05:09;4.10;99.90
14095;DHT22;18096;48.142;16.290;2022-11-30T07:07:35;4.10;99.90
14095;DHT22;18096;48.142;16.290;2022-11-30T07:10:00;4.20;99.90
14095;DHT22;18096;48.142;16.290;2022-11-30T07:12:26;4.10;99.90
14095;DHT22;18096;48.142;16.290;2022-11-30T07:14:52;4.10;99.90
14095;DHT22;18096;48.142;16.290;2022-11-30T07:17:20;4.10;99.90
14095;DHT22;18096;48.142;16.290;2022-11-30T07:19:46;4.10;99.90
14095;DHT22;18096;48.142;16.290;2022-11-30T07:22:12;4.20;99.90
14095;DHT22;18096;48.142;16.290;2022-11-30T07:24:38;4.20;99.90
14095;DHT22;18096;48.142;16.290;2022-11-30T07:27:23;4.20;99.90
14095;DHT22;18096;48.142;16.290;2022-11-30T07:29:48;4.30;99.90
14095;DHT22;18096;48.142;16.290;2022-11-30T07:32:16;4.30;99.90
14095;DHT22;18096;48.142;16.290;2022-11-30T07:34:42;4.30;99.90
14095;DHT22;18096;48.142;16.290;2022-11-30T07:37:07;4.30;99.90
14095;DHT22;18096;48.142;16.290;2022-11-30T07:39:33;4.30;99.90
14095;DHT22;18096;48.142;16.290;2022-11-30T07:41:58;4.30;99.90
14095;DHT22;18096;48.142;16.290;2022-11-30T07:44:24;4.30;99.90
14095;DHT22;18096;48.142;16.290;2022-11-30T07:46:50;4.30;99.90
14095;DHT22;18096;48.142;16.290;2022-11-30T07:49:16;4.20;99.90
14095;DHT22;18096;48.142;16.290;2022-11-30T07:51:42;4.30;99.90
14095;DHT22;18096;48.142;16.290;2022-11-30T07:54:08;4.20;99.90
14095;DHT22;18096;48.142;16.290;2022-11-30T07:56:34;4.20;99.90
14095;DHT22;18096;48.142;16.290;2022-11-30T07:59:00;4.30;99.90
14095;DHT22;18096;48.142;16.290;2022-11-30T08:01:31;4.30;99.90
14095;DHT22;18096;48.142;16.290;2022-11-30T08:03:57;4.30;99.90
14095;DHT22;18096;48.142;16.290;2022-11-30T08:06:28;4.30;99.90
14095;DHT22;18096;48.142;16.290;2022-11-30T08:09:00;4.30;99.90
14095;DHT22;18096;48.142;16.290;2022-11-30T08:11:29;4.30;99.90
14095;DHT22;18096;48.142;16.290;2022-11-30T08:13:55;4.30;99.90
14095;DHT22;18096;48.142;16.290;2022-11-30T08:16:27;4.30;99.90
14095;DHT22;18096;48.142;16.290;2022-11-30T08:18:57;4.30;99.90
14095;DHT22;18096;48.142;16.290;2022-11-30T08:21:23;4.20;99.90
14095;DHT22;18096;48.142;16.290;2022-11-30T08:23:51;4.30;99.90
14095;DHT22;18096;48.142;16.290;2022-11-30T08:26:28;4.30;99.90
14095;DHT22;18096;48.142;16.290;2022-11-30T08:28:55;4.30;99.90
14095;DHT22;18096;48.142;16.290;2022-11-30T08:31:41;4.30;99.90
14095;DHT22;18096;48.142;16.290;2022-11-30T08:34:10;4.40;99.90
14095;DHT22;18096;48.142;16.290;2022-11-30T08:36:38;4.50;99.90
14095;DHT22;18096;48.142;16.290;2022-11-30T08:39:04;4.40;99.90
14095;DHT22;18096;48.142;16.290;2022-11-30T08:41:31;4.50;99.90
14095;DHT22;18096;48.142;16.290;2022-11-30T08:43:57;4.50;99.90
14095;DHT22;18096;48.142;16.290;2022-11-30T08:46:23;4.40;99.90
14095;DHT22;18096;48.142;16.290;2022-11-30T08:48:49;4.50;99.90
14095;DHT22;18096;48.142;16.290;2022-11-30T08:51:16;4.60;99.90
14095;DHT22;18096;48.142;16.290;2022-11-30T08:53:43;4.60;99.90
14095;DHT22;18096;48.142;16.290;2022-11-30T08:56:17;4.60;99.90
14095;DHT22;18096;48.142;16.290;2022-11-30T08:58:44;4.70;99.90
14095;DHT22;18096;48.142;16.290;2022-11-30T09:03:38;4.80;99.90
14095;DHT22;18096;48.142;16.290;2022-11-30T09:06:07;4.90;99.90
14095;DHT22;18096;48.142;16.290;2022-11-30T09:08:33;4.90;99.90
14095;DHT22;18096;48.142;16.290;2022-11-30T09:11:11;4.90;99.90
14095;DHT22;18096;48.142;16.290;2022-11-30T09:13:37;5.00;99.90
14095;DHT22;18096;48.142;16.290;2022-11-30T09:16:03;5.00;99.90
14095;DHT22;18096;48.142;16.290;2022-11-30T09:18:29;5.00;99.90
14095;DHT22;18096;48.142;16.290;2022-11-30T09:21:06;5.00;99.90
14095;DHT22;18096;48.142;16.290;2022-11-30T09:23:33;5.10;99.90
14095;DHT22;18096;48.142;16.290;2022-11-30T09:26:03;5.00;99.90
14095;DHT22;18096;48.142;16.290;2022-11-30T09:28:30;5.00;99.90
14095;DHT22;18096;48.142;16.290;2022-11-30T09:31:04;5.10;99.90
14095;DHT22;18096;48.142;16.290;2022-11-30T09:33:30;5.10;99.90
14095;DHT22;18096;48.142;16.290;2022-11-30T09:35:58;5.00;99.90
14095;DHT22;18096;48.142;16.290;2022-11-30T09:38:24;5.00;99.90
14095;DHT22;18096;48.142;16.290;2022-11-30T09:41:01;5.10;99.90
14095;DHT22;18096;48.142;16.290;2022-11-30T09:46:24;5.10;99.90
14095;DHT22;18096;48.142;16.290;2022-11-30T09:49:03;5.10;99.90
14095;DHT22;18096;48.142;16.290;2022-11-30T09:51:45;5.20;99.90
14095;DHT22;18096;48.142;16.290;2022-11-30T09:54:14;5.30;99.90
14095;DHT22;18096;48.142;16.290;2022-11-30T09:56:42;5.40;99.90
14095;DHT22;18096;48.142;16.290;2022-11-30T09:59:22;5.50;99.90
14095;DHT22;18096;48.142;16.290;2022-11-30T10:01:55;5.50;99.90
14095;DHT22;18096;48.142;16.290;2022-11-30T10:04:24;5.60;99.90
14095;DHT22;18096;48.142;16.290;2022-11-30T10:21:26;5.50;99.90
14095;DHT22;18096;48.142;16.290;2022-11-30T10:26:55;5.50;99.90
14095;DHT22;18096;48.142;16.290;2022-11-30T10:31:57;5.50;99.90
14095;DHT22;18096;48.142;16.290;2022-11-30T10:34:30;5.50;99.90
14095;DHT22;18096;48.142;16.290;2022-11-30T10:40:08;5.60;99.90
14095;DHT22;18096;48.142;16.290;2022-11-30T10:42:42;5.70;99.90
14095;DHT22;18096;48.142;16.290;2022-11-30T10:45:12;5.70;99.90
14095;DHT22;18096;48.142;16.290;2022-11-30T10:47:43;5.80;99.90
14095;DHT22;18096;48.142;16.290;2022-11-30T10:50:14;5.80;99.90
14095;DHT22;18096;48.142;16.290;2022-11-30T10:52:54;5.90;99.90
14095;DHT22;18096;48.142;16.290;2022-11-30T10:55:23;5.90;99.90
14095;DHT22;18096;48.142;16.290;2022-11-30T10:57:54;5.90;99.90
14095;DHT22;18096;48.142;16.290;2022-11-30T11:00:22;6.00;99.90
14095;DHT22;18096;48.142;16.290;2022-11-30T11:02:50;6.00;99.90
14095;DHT22;18096;48.142;16.290;2022-11-30T11:05:25;6.00;99.90
14095;DHT22;18096;48.142;16.290;2022-11-30T11:08:17;6.00;99.90
14095;DHT22;18096;48.142;16.290;2022-11-30T11:10:46;6.00;99.90
14095;DHT22;18096;48.142;16.290;2022-11-30T11:13:34;6.10;99.90
14095;DHT22;18096;48.142;16.290;2022-11-30T11:16:02;6.10;99.90
14095;DHT22;18096;48.142;16.290;2022-11-30T11:18:29;6.10;99.90
14095;DHT22;18096;48.142;16.290;2022-11-30T11:25:59;6.10;99.90
14095;DHT22;18096;48.142;16.290;2022-11-30T11:28:25;6.10;99.90
14095;DHT22;18096;48.142;16.290;2022-11-30T11:30:53;6.10;99.90
14095;DHT22;18096;48.142;16.290;2022-11-30T11:33:27;6.00;99.90
14095;DHT22;18096;48.142;16.290;2022-11-30T11:35:54;6.00;99.90
14095;DHT22;18096;48.142;16.290;2022-11-30T11:38:38;6.00;99.90
14095;DHT22;18096;48.142;16.290;2022-11-30T11:41:09;6.00;99.90
14095;DHT22;18096;48.142;16.290;2022-11-30T11:49:21;6.20;99.90
14095;DHT22;18096;48.142;16.290;2022-11-30T11:52:02;6.20;99.90
14095;DHT22;18096;48.142;16.290;2022-11-30T11:56:59;6.20;99.90
14095;DHT22;18096;48.142;16.290;2022-11-30T12:02:48;6.30;99.90
14095;DHT22;18096;48.142;16.290;2022-11-30T12:05:19;6.40;99.90
14095;DHT22;18096;48.142;16.290;2022-11-30T12:10:54;6.50;99.90
14095;DHT22;18096;48.142;16.290;2022-11-30T12:13:25;6.50;99.90
14095;DHT22;18096;48.142;16.290;2022-11-30T12:18:26;6.50;99.90
14095;DHT22;18096;48.142;16.290;2022-11-30T12:21:06;6.50;99.90
14095;DHT22;18096;48.142;16.290;2022-11-30T12:26:35;6.40;99.90
14095;DHT22;18096;48.142;16.290;2022-11-30T12:29:23;6.40;99.90
14095;DHT22;18096;48.142;16.290;2022-11-30T12:31:54;6.40;99.90
14095;DHT22;18096;48.142;16.290;2022-11-30T12:40:02;6.60;99.90
14095;DHT22;18096;48.142;16.290;2022-11-30T12:42:38;6.60;99.90
14095;DHT22;18096;48.142;16.290;2022-11-30T12:45:27;6.60;99.90
14095;DHT22;18096;48.142;16.290;2022-11-30T12:53:25;6.70;99.50
14095;DHT22;18096;48.142;16.290;2022-11-30T12:58:45;6.60;98.60
14095;DHT22;18096;48.142;16.290;2022-11-30T13:04:03;6.70;98.40
14095;DHT22;18096;48.142;16.290;2022-11-30T13:07:04;6.60;98.30
14095;DHT22;18096;48.142;16.290;2022-11-30T13:09:52;6.50;98.20
14095;DHT22;18096;48.142;16.290;2022-11-30T13:12:24;6.60;98.10
14095;DHT22;18096;48.142;16.290;2022-11-30T13:14:58;6.50;97.90
14095;DHT22;18096;48.142;16.290;2022-11-30T13:17:25;6.60;97.70
14095;DHT22;18096;48.142;16.290;2022-11-30T13:19:57;6.60;97.40
14095;DHT22;18096;48.142;16.290;2022-11-30T13:22:29;6.60;97.30
14095;DHT22;18096;48.142;16.290;2022-11-30T13:31:13;6.40;98.20
14095;DHT22;18096;48.142;16.290;2022-11-30T13:36:38;6.40;98.40
14095;DHT22;18096;48.142;16.290;2022-11-30T13:41:45;6.50;98.00
14095;DHT22;18096;48.142;16.290;2022-11-30T13:46:53;6.50;98.10
14095;DHT22;18096;48.142;16.290;2022-11-30T13:49:33;6.50;99.40
14095;DHT22;18096;48.142;16.290;2022-11-30T13:52:01;6.50;99.10
14095;DHT22;18096;48.142;16.290;2022-11-30T13:54:44;6.40;98.90
14095;DHT22;18096;48.142;16.290;2022-11-30T13:59:58;6.50;98.30
14095;DHT22;18096;48.142;16.290;2022-11-30T14:10:28;6.30;98.80
14095;DHT22;18096;48.142;16.290;2022-11-30T14:13:25;6.30;98.90
14095;DHT22;18096;48.142;16.290;2022-11-30T14:15:58;6.20;98.90
14095;DHT22;18096;48.142;16.290;2022-11-30T14:18:42;6.20;99.10
14095;DHT22;18096;48.142;16.290;2022-11-30T14:21:16;6.30;99.20
14095;DHT22;18096;48.142;16.290;2022-11-30T14:24:22;6.30;99.20
14095;DHT22;18096;48.142;16.290;2022-11-30T14:26:49;6.30;99.10
14095;DHT22;18096;48.142;16.290;2022-11-30T14:29:26;6.20;99.10
14095;DHT22;18096;48.142;16.290;2022-11-30T14:32:06;6.30;99.10
14095;DHT22;18096;48.142;16.290;2022-11-30T14:37:25;6.30;99.10
14095;DHT22;18096;48.142;16.290;2022-11-30T14:39:55;6.30;99.10
14095;DHT22;18096;48.142;16.290;2022-11-30T14:42:26;6.20;99.50
14095;DHT22;18096;48.142;16.290;2022-11-30T14:44:52;6.10;99.50
14095;DHT22;18096;48.142;16.290;2022-11-30T14:47:31;6.10;99.90
14095;DHT22;18096;48.142;16.290;2022-11-30T14:49:59;6.10;99.90
14095;DHT22;18096;48.142;16.290;2022-11-30T14:53:06;6.10;99.90
14095;DHT22;18096;48.142;16.290;2022-11-30T14:55:43;6.10;99.90
14095;DHT22;18096;48.142;16.290;2022-11-30T15:00:57;6.10;99.80
14095;DHT22;18096;48.142;16.290;2022-11-30T15:03:32;6.10;99.70
14095;DHT22;18096;48.142;16.290;2022-11-30T15:06:00;6.10;99.60
14095;DHT22;18096;48.142;16.290;2022-11-30T15:08:35;6.10;99.60
14095;DHT22;18096;48.142;16.290;2022-11-30T15:11:07;6.10;99.70
14095;DHT22;18096;48.142;16.290;2022-11-30T15:13:41;6.10;99.70
14095;DHT22;18096;48.142;16.290;2022-11-30T15:16:20;6.10;99.70
14095;DHT22;18096;48.142;16.290;2022-11-30T15:18:47;6.10;99.70
14095;DHT22;18096;48.142;16.290;2022-11-30T15:21:19;6.10;99.70
14095;DHT22;18096;48.142;16.290;2022-11-30T15:23:46;6.10;99.80
14095;DHT22;18096;48.142;16.290;2022-11-30T15:26:24;6.10;99.90
14095;DHT22;18096;48.142;16.290;2022-11-30T15:29:17;6.10;99.90
14095;DHT22;18096;48.142;16.290;2022-11-30T15:31:48;6.10;99.90
14095;DHT22;18096;48.142;16.290;2022-11-30T15:34:18;6.10;99.90
14095;DHT22;18096;48.142;16.290;2022-11-30T15:36:45;6.10;99.90
14095;DHT22;18096;48.142;16.290;2022-11-30T15:39:19;6.10;99.90
14095;DHT22;18096;48.142;16.290;2022-11-30T15:41:46;6.10;99.90
14095;DHT22;18096;48.142;16.290;2022-11-30T15:44:23;6.10;99.90
14095;DHT22;18096;48.142;16.290;2022-11-30T15:47:00;6.10;99.90
14095;DHT22;18096;48.142;16.290;2022-11-30T15:49:31;6.10;99.90
14095;DHT22;18096;48.142;16.290;2022-11-30T15:57:12;6.10;99.90
14095;DHT22;18096;48.142;16.290;2022-11-30T15:59:38;6.00;99.90
14095;DHT22;18096;48.142;16.290;2022-11-30T16:02:05;6.00;99.90
14095;DHT22;18096;48.142;16.290;2022-11-30T16:07:30;6.00;99.90
14095;DHT22;18096;48.142;16.290;2022-11-30T16:10:13;6.00;99.90
14095;DHT22;18096;48.142;16.290;2022-11-30T16:12:41;6.00;99.90
14095;DHT22;18096;48.142;16.290;2022-11-30T16:15:24;6.00;99.90
14095;DHT22;18096;48.142;16.290;2022-11-30T16:17:53;6.00;99.90
14095;DHT22;18096;48.142;16.290;2022-11-30T16:20:20;6.00;99.90
14095;DHT22;18096;48.142;16.290;2022-11-30T16:22:47;5.90;99.90
14095;DHT22;18096;48.142;16.290;2022-11-30T16:25:18;6.00;99.90
14095;DHT22;18096;48.142;16.290;2022-11-30T16:27:45;6.00;99.90
14095;DHT22;18096;48.142;16.290;2022-11-30T16:30:20;6.00;99.90
14095;DHT22;18096;48.142;16.290;2022-11-30T16:32:47;6.00;99.90
14095;DHT22;18096;48.142;16.290;2022-11-30T16:35:19;6.00;99.90
14095;DHT22;18096;48.142;16.290;2022-11-30T16:37:46;6.00;99.90
14095;DHT22;18096;48.142;16.290;2022-11-30T16:40:12;6.00;99.90
14095;DHT22;18096;48.142;16.290;2022-11-30T16:42:39;6.10;99.90
14095;DHT22;18096;48.142;16.290;2022-11-30T16:45:12;6.10;99.80
14095;DHT22;18096;48.142;16.290;2022-11-30T16:47:38;6.10;99.70
14095;DHT22;18096;48.142;16.290;2022-11-30T16:50:05;6.10;99.70
14095;DHT22;18096;48.142;16.290;2022-11-30T16:52:31;6.10;99.80
14095;DHT22;18096;48.142;16.290;2022-11-30T16:54:57;6.10;99.90
14095;DHT22;18096;48.142;16.290;2022-11-30T16:57:23;6.10;99.80
14095;DHT22;18096;48.142;16.290;2022-11-30T16:59:48;6.10;99.90
14095;DHT22;18096;48.142;16.290;2022-11-30T17:02:18;6.10;99.90
14095;DHT22;18096;48.142;16.290;2022-11-30T17:04:45;6.10;99.90
14095;DHT22;18096;48.142;16.290;2022-11-30T17:07:11;6.10;99.90
14095;DHT22;18096;48.142;16.290;2022-11-30T17:09:36;6.10;99.90
14095;DHT22;18096;48.142;16.290;2022-11-30T17:12:03;6.20;99.90
14095;DHT22;18096;48.142;16.290;2022-11-30T17:14:28;6.20;99.90
14095;DHT22;18096;48.142;16.290;2022-11-30T17:16:54;6.20;99.90
14095;DHT22;18096;48.142;16.290;2022-11-30T17:19:20;6.20;99.90
14095;DHT22;18096;48.142;16.290;2022-11-30T17:21:46;6.20;99.90
14095;DHT22;18096;48.142;16.290;2022-11-30T17:24:14;6.20;99.90
14095;DHT22;18096;48.142;16.290;2022-11-30T17:26:40;6.20;99.90
14095;DHT22;18096;48.142;16.290;2022-11-30T17:29:06;6.30;99.90
14095;DHT22;18096;48.142;16.290;2022-11-30T17:31:32;6.30;99.90
14095;DHT22;18096;48.142;16.290;2022-11-30T17:34:04;6.30;99.90
14095;DHT22;18096;48.142;16.290;2022-11-30T17:36:30;6.30;99.90
14095;DHT22;18096;48.142;16.290;2022-11-30T17:38:56;6.20;99.90
14095;DHT22;18096;48.142;16.290;2022-11-30T17:41:22;6.20;99.90
14095;DHT22;18096;48.142;16.290;2022-11-30T17:43:48;6.20;99.90